Grenola, Kansas
Current Conditions -  °F | °C
As of 2:54 AM on Thursday 18 Dec 2014 (Local Time) from KWLD Reporting Station
Haze Haze  
Wind Chill: 26°   Ceiling: 500
Heat Index: 32°   Visibility: 5mi
Dew Point: 32°   Wind: 7mph
Humidity: 100%   Direction: 90°E
Pressure: 30.15"   Gusts: NA
Location:  37.35°N, 96.45°W
Report Text: KWLD 180854Z AUTO 09006KT 5SM BR OVC005 00/00 A3015 RMK AO2 UPE09SNB0756E07B09E10 SLP220 P0000 60000 I3001 T00000000 55012
Loading
Personal Weather Stations






























Interactive Weather Map New forecast layout! Learn more

10-Day Weather Forecast

Advertisements
Track Severe Weather on mobile